sensor_id;sensor_type;location;lat;lon;timestamp;P1;durP1;ratioP1;P2;durP2;ratioP2
12707;SDS011;6418;50.824;4.718;2023-04-03T00:01:47;23.43;;;13.90;;
12707;SDS011;6418;50.824;4.718;2023-04-03T00:04:14;24.50;;;14.90;;
12707;SDS011;6418;50.824;4.718;2023-04-03T00:06:41;23.90;;;14.20;;
12707;SDS011;6418;50.824;4.718;2023-04-03T00:09:09;21.60;;;13.87;;
12707;SDS011;6418;50.824;4.718;2023-04-03T00:11:36;21.03;;;13.93;;
12707;SDS011;6418;50.824;4.718;2023-04-03T00:14:03;25.93;;;14.73;;
12707;SDS011;6418;50.824;4.718;2023-04-03T00:16:30;23.43;;;13.93;;
12707;SDS011;6418;50.824;4.718;2023-04-03T00:18:57;23.07;;;14.90;;
12707;SDS011;6418;50.824;4.718;2023-04-03T00:21:24;23.53;;;15.10;;
12707;SDS011;6418;50.824;4.718;2023-04-03T00:23:54;27.37;;;14.63;;
12707;SDS011;6418;50.824;4.718;2023-04-03T00:26:22;24.13;;;14.53;;
12707;SDS011;6418;50.824;4.718;2023-04-03T00:28:49;25.23;;;15.03;;
12707;SDS011;6418;50.824;4.718;2023-04-03T00:31:15;22.47;;;14.73;;
12707;SDS011;6418;50.824;4.718;2023-04-03T00:33:42;22.87;;;14.37;;
12707;SDS011;6418;50.824;4.718;2023-04-03T00:36:10;24.87;;;14.27;;
12707;SDS011;6418;50.824;4.718;2023-04-03T00:38:38;27.33;;;15.23;;
12707;SDS011;6418;50.824;4.718;2023-04-03T00:41:05;25.83;;;14.97;;
12707;SDS011;6418;50.824;4.718;2023-04-03T00:43:34;22.13;;;14.67;;
12707;SDS011;6418;50.824;4.718;2023-04-03T00:46:01;23.10;;;14.43;;
12707;SDS011;6418;50.824;4.718;2023-04-03T00:48:29;26.33;;;14.97;;
12707;SDS011;6418;50.824;4.718;2023-04-03T00:50:58;26.97;;;14.90;;
12707;SDS011;6418;50.824;4.718;2023-04-03T00:53:27;22.37;;;14.10;;
12707;SDS011;6418;50.824;4.718;2023-04-03T00:55:57;23.43;;;14.37;;
12707;SDS011;6418;50.824;4.718;2023-04-03T00:58:26;23.47;;;14.87;;
12707;SDS011;6418;50.824;4.718;2023-04-03T01:01:02;23.93;;;14.17;;
12707;SDS011;6418;50.824;4.718;2023-04-03T01:03:33;23.90;;;14.07;;
12707;SDS011;6418;50.824;4.718;2023-04-03T01:06:00;27.07;;;14.80;;
12707;SDS011;6418;50.824;4.718;2023-04-03T01:08:29;24.77;;;14.90;;
12707;SDS011;6418;50.824;4.718;2023-04-03T01:10:56;26.60;;;14.93;;
12707;SDS011;6418;50.824;4.718;2023-04-03T01:13:24;23.37;;;14.70;;
12707;SDS011;6418;50.824;4.718;2023-04-03T01:15:53;24.70;;;14.90;;
12707;SDS011;6418;50.824;4.718;2023-04-03T01:18:22;25.30;;;14.97;;
12707;SDS011;6418;50.824;4.718;2023-04-03T01:23:58;23.03;;;13.87;;
12707;SDS011;6418;50.824;4.718;2023-04-03T01:26:37;26.13;;;14.13;;
12707;SDS011;6418;50.824;4.718;2023-04-03T01:29:05;23.10;;;14.13;;
12707;SDS011;6418;50.824;4.718;2023-04-03T01:31:41;23.00;;;14.53;;
12707;SDS011;6418;50.824;4.718;2023-04-03T01:34:14;24.70;;;14.90;;
12707;SDS011;6418;50.824;4.718;2023-04-03T01:36:41;26.43;;;14.50;;
12707;SDS011;6418;50.824;4.718;2023-04-03T01:39:08;23.60;;;13.90;;
12707;SDS011;6418;50.824;4.718;2023-04-03T01:41:35;26.60;;;14.47;;
12707;SDS011;6418;50.824;4.718;2023-04-03T01:44:02;23.67;;;15.03;;
12707;SDS011;6418;50.824;4.718;2023-04-03T01:46:29;24.60;;;14.83;;
12707;SDS011;6418;50.824;4.718;2023-04-03T01:48:58;21.53;;;14.50;;
12707;SDS011;6418;50.824;4.718;2023-04-03T01:51:25;24.40;;;14.20;;
12707;SDS011;6418;50.824;4.718;2023-04-03T01:53:52;25.83;;;15.50;;
12707;SDS011;6418;50.824;4.718;2023-04-03T01:56:18;26.20;;;15.13;;
12707;SDS011;6418;50.824;4.718;2023-04-03T01:58:46;27.23;;;14.30;;
12707;SDS011;6418;50.824;4.718;2023-04-03T02:01:13;24.17;;;14.50;;
12707;SDS011;6418;50.824;4.718;2023-04-03T02:03:40;25.30;;;14.17;;
12707;SDS011;6418;50.824;4.718;2023-04-03T02:06:08;24.83;;;14.00;;
12707;SDS011;6418;50.824;4.718;2023-04-03T02:08:35;23.63;;;14.20;;
12707;SDS011;6418;50.824;4.718;2023-04-03T02:11:02;25.47;;;14.47;;
12707;SDS011;6418;50.824;4.718;2023-04-03T02:13:29;25.00;;;14.33;;
12707;SDS011;6418;50.824;4.718;2023-04-03T02:15:56;26.97;;;14.60;;
12707;SDS011;6418;50.824;4.718;2023-04-03T02:18:24;24.10;;;13.67;;
12707;SDS011;6418;50.824;4.718;2023-04-03T02:20:51;29.30;;;15.30;;
12707;SDS011;6418;50.824;4.718;2023-04-03T02:23:19;24.67;;;14.77;;
12707;SDS011;6418;50.824;4.718;2023-04-03T02:25:46;27.17;;;15.67;;
12707;SDS011;6418;50.824;4.718;2023-04-03T02:28:14;26.60;;;14.80;;
12707;SDS011;6418;50.824;4.718;2023-04-03T02:30:41;23.37;;;14.93;;
12707;SDS011;6418;50.824;4.718;2023-04-03T02:33:08;25.47;;;14.33;;
12707;SDS011;6418;50.824;4.718;2023-04-03T02:35:35;28.80;;;15.63;;
12707;SDS011;6418;50.824;4.718;2023-04-03T02:38:03;27.60;;;15.27;;
12707;SDS011;6418;50.824;4.718;2023-04-03T02:40:31;27.53;;;15.67;;
12707;SDS011;6418;50.824;4.718;2023-04-03T02:42:58;25.30;;;15.10;;
12707;SDS011;6418;50.824;4.718;2023-04-03T02:45:25;26.83;;;14.90;;
12707;SDS011;6418;50.824;4.718;2023-04-03T02:47:52;27.40;;;15.63;;
12707;SDS011;6418;50.824;4.718;2023-04-03T02:50:19;28.83;;;15.93;;
12707;SDS011;6418;50.824;4.718;2023-04-03T02:52:45;26.27;;;16.00;;
12707;SDS011;6418;50.824;4.718;2023-04-03T02:55:13;25.67;;;16.07;;
12707;SDS011;6418;50.824;4.718;2023-04-03T02:57:42;29.50;;;16.10;;
12707;SDS011;6418;50.824;4.718;2023-04-03T03:00:09;27.17;;;15.50;;
12707;SDS011;6418;50.824;4.718;2023-04-03T03:02:37;29.53;;;16.40;;
12707;SDS011;6418;50.824;4.718;2023-04-03T03:05:04;31.40;;;16.03;;
12707;SDS011;6418;50.824;4.718;2023-04-03T03:07:31;26.70;;;16.17;;
12707;SDS011;6418;50.824;4.718;2023-04-03T03:09:58;33.03;;;17.13;;
12707;SDS011;6418;50.824;4.718;2023-04-03T03:12:25;33.63;;;16.63;;
12707;SDS011;6418;50.824;4.718;2023-04-03T03:14:53;32.50;;;17.27;;
12707;SDS011;6418;50.824;4.718;2023-04-03T03:17:20;25.80;;;16.40;;
12707;SDS011;6418;50.824;4.718;2023-04-03T03:19:47;32.70;;;16.93;;
12707;SDS011;6418;50.824;4.718;2023-04-03T03:22:14;26.70;;;16.13;;
12707;SDS011;6418;50.824;4.718;2023-04-03T03:24:42;27.27;;;16.63;;
12707;SDS011;6418;50.824;4.718;2023-04-03T03:27:09;30.33;;;16.97;;
12707;SDS011;6418;50.824;4.718;2023-04-03T03:29:37;28.27;;;16.47;;
12707;SDS011;6418;50.824;4.718;2023-04-03T03:32:05;30.53;;;16.50;;
12707;SDS011;6418;50.824;4.718;2023-04-03T03:34:32;26.60;;;15.90;;
12707;SDS011;6418;50.824;4.718;2023-04-03T03:36:59;28.13;;;16.37;;
12707;SDS011;6418;50.824;4.718;2023-04-03T03:39:26;27.73;;;16.77;;
12707;SDS011;6418;50.824;4.718;2023-04-03T03:41:54;27.70;;;16.57;;
12707;SDS011;6418;50.824;4.718;2023-04-03T03:44:20;28.97;;;17.03;;
12707;SDS011;6418;50.824;4.718;2023-04-03T03:46:48;29.93;;;16.37;;
12707;SDS011;6418;50.824;4.718;2023-04-03T03:49:16;26.47;;;16.27;;
12707;SDS011;6418;50.824;4.718;2023-04-03T03:51:43;26.70;;;16.00;;
12707;SDS011;6418;50.824;4.718;2023-04-03T03:54:10;26.67;;;16.23;;
12707;SDS011;6418;50.824;4.718;2023-04-03T03:56:37;26.83;;;15.87;;
12707;SDS011;6418;50.824;4.718;2023-04-03T03:59:04;27.10;;;16.00;;
12707;SDS011;6418;50.824;4.718;2023-04-03T04:01:31;27.93;;;16.13;;
12707;SDS011;6418;50.824;4.718;2023-04-03T04:03:58;28.73;;;15.57;;
12707;SDS011;6418;50.824;4.718;2023-04-03T04:06:26;29.73;;;15.73;;
12707;SDS011;6418;50.824;4.718;2023-04-03T04:08:53;27.67;;;16.33;;
12707;SDS011;6418;50.824;4.718;2023-04-03T04:11:20;27.07;;;15.07;;
12707;SDS011;6418;50.824;4.718;2023-04-03T04:13:47;29.10;;;16.20;;
12707;SDS011;6418;50.824;4.718;2023-04-03T04:16:14;26.73;;;14.83;;
12707;SDS011;6418;50.824;4.718;2023-04-03T04:18:41;27.13;;;15.17;;
12707;SDS011;6418;50.824;4.718;2023-04-03T04:21:08;25.67;;;15.10;;
12707;SDS011;6418;50.824;4.718;2023-04-03T04:23:36;25.07;;;15.37;;
12707;SDS011;6418;50.824;4.718;2023-04-03T04:26:03;29.23;;;15.90;;
12707;SDS011;6418;50.824;4.718;2023-04-03T04:28:30;26.00;;;14.40;;
12707;SDS011;6418;50.824;4.718;2023-04-03T04:30:56;28.77;;;15.37;;
12707;SDS011;6418;50.824;4.718;2023-04-03T04:33:23;26.03;;;15.30;;
12707;SDS011;6418;50.824;4.718;2023-04-03T04:35:50;24.70;;;14.70;;
12707;SDS011;6418;50.824;4.718;2023-04-03T04:38:17;25.60;;;14.80;;
12707;SDS011;6418;50.824;4.718;2023-04-03T04:40:46;26.70;;;15.10;;
12707;SDS011;6418;50.824;4.718;2023-04-03T04:43:13;24.00;;;15.50;;
12707;SDS011;6418;50.824;4.718;2023-04-03T04:45:40;28.17;;;15.70;;
12707;SDS011;6418;50.824;4.718;2023-04-03T04:48:07;29.10;;;17.60;;
12707;SDS011;6418;50.824;4.718;2023-04-03T04:50:35;32.87;;;17.87;;
12707;SDS011;6418;50.824;4.718;2023-04-03T04:53:02;30.73;;;17.83;;
12707;SDS011;6418;50.824;4.718;2023-04-03T04:55:29;28.63;;;16.13;;
12707;SDS011;6418;50.824;4.718;2023-04-03T04:57:57;26.27;;;16.07;;
12707;SDS011;6418;50.824;4.718;2023-04-03T05:00:24;30.50;;;16.70;;
12707;SDS011;6418;50.824;4.718;2023-04-03T05:02:51;32.07;;;16.53;;
12707;SDS011;6418;50.824;4.718;2023-04-03T05:05:18;30.23;;;16.30;;
12707;SDS011;6418;50.824;4.718;2023-04-03T05:07:45;28.17;;;16.73;;
12707;SDS011;6418;50.824;4.718;2023-04-03T05:10:12;31.13;;;17.70;;
12707;SDS011;6418;50.824;4.718;2023-04-03T05:12:39;25.23;;;16.40;;
12707;SDS011;6418;50.824;4.718;2023-04-03T05:15:08;25.70;;;17.03;;
12707;SDS011;6418;50.824;4.718;2023-04-03T05:17:35;25.70;;;15.83;;
12707;SDS011;6418;50.824;4.718;2023-04-03T05:20:02;28.33;;;16.23;;
12707;SDS011;6418;50.824;4.718;2023-04-03T05:22:30;30.73;;;17.43;;
12707;SDS011;6418;50.824;4.718;2023-04-03T05:24:57;32.07;;;18.07;;
12707;SDS011;6418;50.824;4.718;2023-04-03T05:27:24;30.03;;;16.60;;
12707;SDS011;6418;50.824;4.718;2023-04-03T05:29:53;31.27;;;17.40;;
12707;SDS011;6418;50.824;4.718;2023-04-03T05:32:21;25.73;;;16.60;;
12707;SDS011;6418;50.824;4.718;2023-04-03T05:34:49;26.97;;;16.60;;
12707;SDS011;6418;50.824;4.718;2023-04-03T05:37:16;27.90;;;16.67;;
12707;SDS011;6418;50.824;4.718;2023-04-03T05:39:43;33.87;;;19.00;;
12707;SDS011;6418;50.824;4.718;2023-04-03T05:42:10;31.70;;;18.70;;
12707;SDS011;6418;50.824;4.718;2023-04-03T05:44:38;29.27;;;18.47;;
12707;SDS011;6418;50.824;4.718;2023-04-03T05:47:05;32.13;;;19.10;;
12707;SDS011;6418;50.824;4.718;2023-04-03T05:49:34;31.30;;;19.10;;
12707;SDS011;6418;50.824;4.718;2023-04-03T05:52:01;29.50;;;18.97;;
12707;SDS011;6418;50.824;4.718;2023-04-03T05:54:28;29.30;;;19.07;;
12707;SDS011;6418;50.824;4.718;2023-04-03T05:56:56;32.43;;;18.83;;
12707;SDS011;6418;50.824;4.718;2023-04-03T05:59:23;30.80;;;19.17;;
12707;SDS011;6418;50.824;4.718;2023-04-03T06:01:50;33.37;;;18.73;;
12707;SDS011;6418;50.824;4.718;2023-04-03T06:04:17;34.17;;;19.07;;
12707;SDS011;6418;50.824;4.718;2023-04-03T06:06:47;54.10;;;20.93;;
12707;SDS011;6418;50.824;4.718;2023-04-03T06:09:16;35.70;;;20.03;;
12707;SDS011;6418;50.824;4.718;2023-04-03T06:11:44;30.17;;;18.57;;
12707;SDS011;6418;50.824;4.718;2023-04-03T06:14:11;32.07;;;19.60;;
12707;SDS011;6418;50.824;4.718;2023-04-03T06:16:38;35.87;;;20.00;;
12707;SDS011;6418;50.824;4.718;2023-04-03T06:19:06;35.23;;;19.63;;
12707;SDS011;6418;50.824;4.718;2023-04-03T06:21:33;32.93;;;19.73;;
12707;SDS011;6418;50.824;4.718;2023-04-03T06:24:02;34.77;;;19.40;;
12707;SDS011;6418;50.824;4.718;2023-04-03T06:26:29;36.03;;;20.53;;
12707;SDS011;6418;50.824;4.718;2023-04-03T06:28:56;35.23;;;19.63;;
12707;SDS011;6418;50.824;4.718;2023-04-03T06:31:23;35.50;;;19.53;;
12707;SDS011;6418;50.824;4.718;2023-04-03T06:33:50;33.77;;;20.43;;
12707;SDS011;6418;50.824;4.718;2023-04-03T06:36:17;36.37;;;21.03;;
12707;SDS011;6418;50.824;4.718;2023-04-03T06:38:46;36.43;;;21.37;;
12707;SDS011;6418;50.824;4.718;2023-04-03T06:41:15;36.77;;;23.20;;
12707;SDS011;6418;50.824;4.718;2023-04-03T06:43:42;38.40;;;22.23;;
12707;SDS011;6418;50.824;4.718;2023-04-03T06:46:12;39.27;;;24.87;;
12707;SDS011;6418;50.824;4.718;2023-04-03T06:48:40;45.83;;;27.77;;
12707;SDS011;6418;50.824;4.718;2023-04-03T06:51:10;46.87;;;28.57;;
12707;SDS011;6418;50.824;4.718;2023-04-03T06:53:43;44.53;;;29.47;;
12707;SDS011;6418;50.824;4.718;2023-04-03T06:56:10;50.03;;;30.10;;
12707;SDS011;6418;50.824;4.718;2023-04-03T06:58:39;48.47;;;32.20;;
12707;SDS011;6418;50.824;4.718;2023-04-03T07:01:06;44.00;;;30.40;;
12707;SDS011;6418;50.824;4.718;2023-04-03T07:03:34;45.83;;;31.93;;
12707;SDS011;6418;50.824;4.718;2023-04-03T07:06:01;44.57;;;30.27;;
12707;SDS011;6418;50.824;4.718;2023-04-03T07:08:29;48.40;;;31.23;;
12707;SDS011;6418;50.824;4.718;2023-04-03T07:10:56;47.33;;;31.53;;
12707;SDS011;6418;50.824;4.718;2023-04-03T07:13:23;50.00;;;31.90;;
12707;SDS011;6418;50.824;4.718;2023-04-03T07:15:53;47.93;;;31.97;;
12707;SDS011;6418;50.824;4.718;2023-04-03T07:18:20;50.37;;;32.20;;
12707;SDS011;6418;50.824;4.718;2023-04-03T07:20:47;46.30;;;30.90;;
12707;SDS011;6418;50.824;4.718;2023-04-03T07:23:14;48.53;;;31.37;;
12707;SDS011;6418;50.824;4.718;2023-04-03T07:25:42;43.27;;;30.60;;
12707;SDS011;6418;50.824;4.718;2023-04-03T07:28:10;45.33;;;30.27;;
12707;SDS011;6418;50.824;4.718;2023-04-03T07:30:42;44.10;;;28.93;;
12707;SDS011;6418;50.824;4.718;2023-04-03T07:33:11;43.03;;;29.63;;
12707;SDS011;6418;50.824;4.718;2023-04-03T07:35:39;40.07;;;28.13;;
12707;SDS011;6418;50.824;4.718;2023-04-03T07:38:06;37.47;;;25.43;;
12707;SDS011;6418;50.824;4.718;2023-04-03T07:40:33;38.27;;;24.33;;
12707;SDS011;6418;50.824;4.718;2023-04-03T07:43:01;35.00;;;23.87;;
12707;SDS011;6418;50.824;4.718;2023-04-03T07:45:28;35.90;;;23.63;;
12707;SDS011;6418;50.824;4.718;2023-04-03T07:47:55;31.83;;;22.33;;
12707;SDS011;6418;50.824;4.718;2023-04-03T07:50:23;29.23;;;21.83;;
12707;SDS011;6418;50.824;4.718;2023-04-03T07:52:52;32.93;;;22.10;;
12707;SDS011;6418;50.824;4.718;2023-04-03T07:55:21;29.23;;;20.40;;
12707;SDS011;6418;50.824;4.718;2023-04-03T07:57:48;31.50;;;21.00;;
12707;SDS011;6418;50.824;4.718;2023-04-03T08:00:15;30.87;;;21.27;;
12707;SDS011;6418;50.824;4.718;2023-04-03T08:02:44;26.00;;;19.07;;
12707;SDS011;6418;50.824;4.718;2023-04-03T08:05:15;31.10;;;20.00;;
12707;SDS011;6418;50.824;4.718;2023-04-03T08:07:43;27.03;;;19.80;;
12707;SDS011;6418;50.824;4.718;2023-04-03T08:10:11;30.90;;;18.80;;
12707;SDS011;6418;50.824;4.718;2023-04-03T08:12:38;30.90;;;19.57;;
12707;SDS011;6418;50.824;4.718;2023-04-03T08:15:05;27.60;;;18.27;;
12707;SDS011;6418;50.824;4.718;2023-04-03T08:17:34;29.20;;;18.97;;
12707;SDS011;6418;50.824;4.718;2023-04-03T08:20:02;27.83;;;18.97;;
12707;SDS011;6418;50.824;4.718;2023-04-03T08:22:30;26.33;;;17.67;;
12707;SDS011;6418;50.824;4.718;2023-04-03T08:24:58;23.17;;;16.27;;
12707;SDS011;6418;50.824;4.718;2023-04-03T08:27:26;22.60;;;15.67;;
12707;SDS011;6418;50.824;4.718;2023-04-03T08:29:53;22.33;;;13.93;;
12707;SDS011;6418;50.824;4.718;2023-04-03T08:32:20;22.20;;;13.97;;
12707;SDS011;6418;50.824;4.718;2023-04-03T08:34:47;22.97;;;13.40;;
12707;SDS011;6418;50.824;4.718;2023-04-03T08:37:14;23.33;;;13.47;;
12707;SDS011;6418;50.824;4.718;2023-04-03T08:39:42;20.80;;;12.03;;
12707;SDS011;6418;50.824;4.718;2023-04-03T08:42:14;22.30;;;11.93;;
12707;SDS011;6418;50.824;4.718;2023-04-03T08:44:46;20.23;;;11.50;;
12707;SDS011;6418;50.824;4.718;2023-04-03T08:47:20;19.53;;;11.20;;
12707;SDS011;6418;50.824;4.718;2023-04-03T08:49:51;20.73;;;10.60;;
12707;SDS011;6418;50.824;4.718;2023-04-03T08:52:22;16.33;;;10.30;;
12707;SDS011;6418;50.824;4.718;2023-04-03T08:54:55;18.53;;;9.90;;
12707;SDS011;6418;50.824;4.718;2023-04-03T08:57:28;15.60;;;8.83;;
12707;SDS011;6418;50.824;4.718;2023-04-03T08:59:57;17.00;;;8.90;;
12707;SDS011;6418;50.824;4.718;2023-04-03T09:02:29;16.83;;;8.70;;
12707;SDS011;6418;50.824;4.718;2023-04-03T09:05:01;15.63;;;8.07;;
12707;SDS011;6418;50.824;4.718;2023-04-03T09:07:36;13.47;;;7.83;;
12707;SDS011;6418;50.824;4.718;2023-04-03T09:10:08;14.80;;;8.27;;
12707;SDS011;6418;50.824;4.718;2023-04-03T09:12:40;13.50;;;7.60;;
12707;SDS011;6418;50.824;4.718;2023-04-03T09:15:10;13.27;;;7.70;;
12707;SDS011;6418;50.824;4.718;2023-04-03T09:17:46;16.00;;;7.87;;
12707;SDS011;6418;50.824;4.718;2023-04-03T09:20:31;14.50;;;8.00;;
12707;SDS011;6418;50.824;4.718;2023-04-03T09:23:15;15.93;;;8.27;;
12707;SDS011;6418;50.824;4.718;2023-04-03T09:25:47;14.23;;;8.00;;
12707;SDS011;6418;50.824;4.718;2023-04-03T09:28:18;15.57;;;8.70;;
12707;SDS011;6418;50.824;4.718;2023-04-03T09:30:45;14.73;;;8.27;;
12707;SDS011;6418;50.824;4.718;2023-04-03T09:33:12;15.97;;;8.37;;
12707;SDS011;6418;50.824;4.718;2023-04-03T09:35:40;15.00;;;7.93;;
12707;SDS011;6418;50.824;4.718;2023-04-03T09:38:18;15.80;;;7.60;;
12707;SDS011;6418;50.824;4.718;2023-04-03T09:40:47;14.90;;;7.30;;
12707;SDS011;6418;50.824;4.718;2023-04-03T09:43:33;14.80;;;7.87;;
12707;SDS011;6418;50.824;4.718;2023-04-03T09:46:17;14.77;;;7.57;;
12707;SDS011;6418;50.824;4.718;2023-04-03T09:48:51;18.90;;;7.90;;
12707;SDS011;6418;50.824;4.718;2023-04-03T09:51:24;12.37;;;7.70;;
12707;SDS011;6418;50.824;4.718;2023-04-03T09:53:53;11.73;;;6.87;;
12707;SDS011;6418;50.824;4.718;2023-04-03T09:56:22;14.13;;;7.07;;
12707;SDS011;6418;50.824;4.718;2023-04-03T09:58:53;12.13;;;6.83;;
12707;SDS011;6418;50.824;4.718;2023-04-03T10:01:35;12.87;;;6.43;;
12707;SDS011;6418;50.824;4.718;2023-04-03T10:04:05;11.80;;;6.33;;
12707;SDS011;6418;50.824;4.718;2023-04-03T10:06:34;16.03;;;7.13;;
12707;SDS011;6418;50.824;4.718;2023-04-03T10:09:10;12.17;;;6.87;;
12707;SDS011;6418;50.824;4.718;2023-04-03T10:11:57;12.87;;;5.90;;
12707;SDS011;6418;50.824;4.718;2023-04-03T10:14:27;9.67;;;5.40;;
12707;SDS011;6418;50.824;4.718;2023-04-03T10:16:57;11.90;;;5.80;;
12707;SDS011;6418;50.824;4.718;2023-04-03T10:19:34;12.40;;;6.13;;
12707;SDS011;6418;50.824;4.718;2023-04-03T10:22:11;11.47;;;5.87;;
12707;SDS011;6418;50.824;4.718;2023-04-03T10:24:45;15.97;;;6.33;;
12707;SDS011;6418;50.824;4.718;2023-04-03T10:27:18;14.90;;;5.63;;
12707;SDS011;6418;50.824;4.718;2023-04-03T10:29:55;9.63;;;4.83;;
12707;SDS011;6418;50.824;4.718;2023-04-03T10:32:43;11.73;;;5.40;;
12707;SDS011;6418;50.824;4.718;2023-04-03T10:35:20;13.13;;;5.03;;
12707;SDS011;6418;50.824;4.718;2023-04-03T10:38:01;9.30;;;4.70;;
12707;SDS011;6418;50.824;4.718;2023-04-03T10:40:36;9.43;;;4.60;;
12707;SDS011;6418;50.824;4.718;2023-04-03T10:43:14;8.87;;;4.37;;
12707;SDS011;6418;50.824;4.718;2023-04-03T10:45:51;8.73;;;4.30;;
12707;SDS011;6418;50.824;4.718;2023-04-03T10:51:22;11.53;;;4.73;;
12707;SDS011;6418;50.824;4.718;2023-04-03T10:53:55;9.33;;;4.80;;
12707;SDS011;6418;50.824;4.718;2023-04-03T10:56:29;10.20;;;4.73;;
12707;SDS011;6418;50.824;4.718;2023-04-03T10:59:02;10.77;;;5.30;;
12707;SDS011;6418;50.824;4.718;2023-04-03T11:01:40;9.50;;;4.67;;
12707;SDS011;6418;50.824;4.718;2023-04-03T11:04:10;9.53;;;4.80;;
12707;SDS011;6418;50.824;4.718;2023-04-03T11:06:41;7.77;;;4.40;;
12707;SDS011;6418;50.824;4.718;2023-04-03T11:09:15;8.37;;;4.20;;
12707;SDS011;6418;50.824;4.718;2023-04-03T11:11:48;6.53;;;4.20;;
12707;SDS011;6418;50.824;4.718;2023-04-03T11:14:18;9.70;;;4.10;;
12707;SDS011;6418;50.824;4.718;2023-04-03T11:16:53;10.47;;;4.07;;
12707;SDS011;6418;50.824;4.718;2023-04-03T11:19:31;9.10;;;4.13;;
12707;SDS011;6418;50.824;4.718;2023-04-03T11:22:05;7.37;;;4.10;;
12707;SDS011;6418;50.824;4.718;2023-04-03T11:24:38;10.87;;;4.30;;
12707;SDS011;6418;50.824;4.718;2023-04-03T11:27:08;13.37;;;4.10;;
12707;SDS011;6418;50.824;4.718;2023-04-03T11:29:43;7.63;;;4.10;;
12707;SDS011;6418;50.824;4.718;2023-04-03T11:32:21;7.40;;;4.10;;
12707;SDS011;6418;50.824;4.718;2023-04-03T11:34:58;7.83;;;4.20;;
12707;SDS011;6418;50.824;4.718;2023-04-03T11:37:28;10.70;;;4.67;;
12707;SDS011;6418;50.824;4.718;2023-04-03T11:39:59;7.73;;;4.23;;
12707;SDS011;6418;50.824;4.718;2023-04-03T11:42:31;10.10;;;4.50;;
12707;SDS011;6418;50.824;4.718;2023-04-03T11:45:17;15.20;;;4.30;;
12707;SDS011;6418;50.824;4.718;2023-04-03T11:47:58;9.67;;;4.27;;
12707;SDS011;6418;50.824;4.718;2023-04-03T11:50:30;8.90;;;4.37;;
12707;SDS011;6418;50.824;4.718;2023-04-03T11:52:59;6.73;;;3.83;;
12707;SDS011;6418;50.824;4.718;2023-04-03T11:55:41;6.57;;;4.20;;
12707;SDS011;6418;50.824;4.718;2023-04-03T11:58:14;9.77;;;4.20;;
12707;SDS011;6418;50.824;4.718;2023-04-03T12:00:53;7.83;;;3.93;;
12707;SDS011;6418;50.824;4.718;2023-04-03T12:03:55;8.07;;;3.97;;
12707;SDS011;6418;50.824;4.718;2023-04-03T12:12:55;10.90;;;4.00;;
12707;SDS011;6418;50.824;4.718;2023-04-03T12:21:08;8.87;;;3.93;;
12707;SDS011;6418;50.824;4.718;2023-04-03T12:23:35;6.10;;;3.80;;
12707;SDS011;6418;50.824;4.718;2023-04-03T12:26:24;6.80;;;3.90;;
12707;SDS011;6418;50.824;4.718;2023-04-03T12:28:53;6.17;;;3.40;;
12707;SDS011;6418;50.824;4.718;2023-04-03T12:31:22;6.90;;;3.60;;
12707;SDS011;6418;50.824;4.718;2023-04-03T12:34:01;5.17;;;3.57;;
12707;SDS011;6418;50.824;4.718;2023-04-03T12:36:42;5.60;;;3.40;;
12707;SDS011;6418;50.824;4.718;2023-04-03T12:39:20;3.90;;;3.20;;
12707;SDS011;6418;50.824;4.718;2023-04-03T12:42:11;6.30;;;3.30;;
12707;SDS011;6418;50.824;4.718;2023-04-03T12:45:09;6.67;;;3.10;;
12707;SDS011;6418;50.824;4.718;2023-04-03T12:47:43;4.20;;;3.10;;
12707;SDS011;6418;50.824;4.718;2023-04-03T12:50:18;5.30;;;3.30;;
12707;SDS011;6418;50.824;4.718;2023-04-03T12:52:53;5.03;;;3.10;;
12707;SDS011;6418;50.824;4.718;2023-04-03T12:55:23;4.30;;;3.07;;
12707;SDS011;6418;50.824;4.718;2023-04-03T12:57:51;6.37;;;3.10;;
12707;SDS011;6418;50.824;4.718;2023-04-03T13:00:27;5.67;;;3.07;;
12707;SDS011;6418;50.824;4.718;2023-04-03T13:02:57;7.53;;;3.60;;
12707;SDS011;6418;50.824;4.718;2023-04-03T13:05:25;5.83;;;3.30;;
12707;SDS011;6418;50.824;4.718;2023-04-03T13:07:55;7.10;;;3.70;;
12707;SDS011;6418;50.824;4.718;2023-04-03T13:10:28;7.57;;;3.80;;
12707;SDS011;6418;50.824;4.718;2023-04-03T13:12:57;7.90;;;3.60;;
12707;SDS011;6418;50.824;4.718;2023-04-03T13:15:26;5.97;;;3.50;;
12707;SDS011;6418;50.824;4.718;2023-04-03T13:17:54;5.87;;;3.40;;
12707;SDS011;6418;50.824;4.718;2023-04-03T13:20:23;8.07;;;3.70;;
12707;SDS011;6418;50.824;4.718;2023-04-03T13:22:53;9.40;;;4.00;;
12707;SDS011;6418;50.824;4.718;2023-04-03T13:25:26;6.07;;;3.67;;
12707;SDS011;6418;50.824;4.718;2023-04-03T13:27:55;6.60;;;3.60;;
12707;SDS011;6418;50.824;4.718;2023-04-03T13:30:29;6.27;;;3.80;;
12707;SDS011;6418;50.824;4.718;2023-04-03T13:32:59;8.53;;;3.70;;
12707;SDS011;6418;50.824;4.718;2023-04-03T13:35:35;5.10;;;3.70;;
12707;SDS011;6418;50.824;4.718;2023-04-03T13:38:06;6.57;;;3.30;;
12707;SDS011;6418;50.824;4.718;2023-04-03T13:40:47;6.30;;;3.60;;
12707;SDS011;6418;50.824;4.718;2023-04-03T13:43:17;7.03;;;3.30;;
12707;SDS011;6418;50.824;4.718;2023-04-03T13:48:49;6.27;;;3.77;;
12707;SDS011;6418;50.824;4.718;2023-04-03T13:51:18;6.93;;;3.60;;
12707;SDS011;6418;50.824;4.718;2023-04-03T13:53:51;9.27;;;3.90;;
12707;SDS011;6418;50.824;4.718;2023-04-03T13:56:22;6.17;;;3.50;;
12707;SDS011;6418;50.824;4.718;2023-04-03T13:58:53;7.20;;;3.50;;
12707;SDS011;6418;50.824;4.718;2023-04-03T14:01:23;6.60;;;4.07;;
12707;SDS011;6418;50.824;4.718;2023-04-03T14:03:59;6.47;;;3.60;;
12707;SDS011;6418;50.824;4.718;2023-04-03T14:06:27;5.70;;;3.60;;
12707;SDS011;6418;50.824;4.718;2023-04-03T14:08:56;7.43;;;3.73;;
12707;SDS011;6418;50.824;4.718;2023-04-03T14:11:24;5.70;;;3.43;;
12707;SDS011;6418;50.824;4.718;2023-04-03T14:13:55;8.20;;;3.37;;
12707;SDS011;6418;50.824;4.718;2023-04-03T14:16:25;7.57;;;3.67;;
12707;SDS011;6418;50.824;4.718;2023-04-03T14:18:59;7.73;;;4.33;;
12707;SDS011;6418;50.824;4.718;2023-04-03T14:21:25;10.20;;;4.40;;
12707;SDS011;6418;50.824;4.718;2023-04-03T14:23:52;6.80;;;3.87;;
12707;SDS011;6418;50.824;4.718;2023-04-03T14:26:22;8.80;;;3.80;;
12707;SDS011;6418;50.824;4.718;2023-04-03T14:28:52;6.97;;;3.87;;
12707;SDS011;6418;50.824;4.718;2023-04-03T14:31:21;7.97;;;4.20;;
12707;SDS011;6418;50.824;4.718;2023-04-03T14:33:49;5.77;;;3.80;;
12707;SDS011;6418;50.824;4.718;2023-04-03T14:36:17;7.50;;;3.93;;
12707;SDS011;6418;50.824;4.718;2023-04-03T14:38:46;6.23;;;3.87;;
12707;SDS011;6418;50.824;4.718;2023-04-03T14:41:15;6.23;;;4.10;;
12707;SDS011;6418;50.824;4.718;2023-04-03T14:43:45;6.77;;;3.83;;
12707;SDS011;6418;50.824;4.718;2023-04-03T14:46:13;6.47;;;3.67;;
12707;SDS011;6418;50.824;4.718;2023-04-03T14:48:42;7.90;;;3.97;;
12707;SDS011;6418;50.824;4.718;2023-04-03T14:51:10;8.13;;;3.40;;
12707;SDS011;6418;50.824;4.718;2023-04-03T14:53:38;9.20;;;4.07;;
12707;SDS011;6418;50.824;4.718;2023-04-03T14:56:10;8.33;;;3.83;;
12707;SDS011;6418;50.824;4.718;2023-04-03T14:58:38;8.57;;;4.10;;
12707;SDS011;6418;50.824;4.718;2023-04-03T15:01:08;8.50;;;4.10;;
12707;SDS011;6418;50.824;4.718;2023-04-03T15:03:36;9.73;;;4.03;;
12707;SDS011;6418;50.824;4.718;2023-04-03T15:06:04;7.53;;;4.10;;
12707;SDS011;6418;50.824;4.718;2023-04-03T15:08:31;7.47;;;3.90;;
12707;SDS011;6418;50.824;4.718;2023-04-03T15:10:58;9.67;;;4.20;;
12707;SDS011;6418;50.824;4.718;2023-04-03T15:13:26;6.80;;;3.93;;
12707;SDS011;6418;50.824;4.718;2023-04-03T15:15:53;8.87;;;4.20;;
12707;SDS011;6418;50.824;4.718;2023-04-03T15:18:22;6.90;;;3.93;;
12707;SDS011;6418;50.824;4.718;2023-04-03T15:20:52;10.07;;;4.10;;